sensor_id;sensor_type;location;lat;lon;timestamp;P1;durP1;ratioP1;P2;durP2;ratioP2
15814;SDS011;8008;50.024;8.172;2023-02-22T04:01:54;14.37;;;8.70;;
15814;SDS011;8008;50.024;8.172;2023-02-22T04:04:25;14.07;;;8.43;;
15814;SDS011;8008;50.024;8.172;2023-02-22T04:06:53;13.27;;;8.57;;
15814;SDS011;8008;50.024;8.172;2023-02-22T04:13:00;14.17;;;8.93;;
15814;SDS011;8008;50.024;8.172;2023-02-22T04:15:28;14.90;;;9.37;;
15814;SDS011;8008;50.024;8.172;2023-02-22T04:18:03;16.40;;;9.13;;
15814;SDS011;8008;50.024;8.172;2023-02-22T04:20:31;31.23;;;9.73;;
15814;SDS011;8008;50.024;8.172;2023-02-22T04:23:17;28.80;;;9.93;;
15814;SDS011;8008;50.024;8.172;2023-02-22T04:25:45;24.17;;;9.30;;
15814;SDS011;8008;50.024;8.172;2023-02-22T04:28:15;15.43;;;8.70;;
15814;SDS011;8008;50.024;8.172;2023-02-22T04:30:49;15.27;;;8.83;;
15814;SDS011;8008;50.024;8.172;2023-02-22T04:33:19;14.73;;;8.10;;
15814;SDS011;8008;50.024;8.172;2023-02-22T04:35:47;13.17;;;8.93;;
15814;SDS011;8008;50.024;8.172;2023-02-22T04:38:17;14.67;;;9.17;;
15814;SDS011;8008;50.024;8.172;2023-02-22T04:40:46;15.27;;;9.30;;
15814;SDS011;8008;50.024;8.172;2023-02-22T04:43:14;14.90;;;9.20;;
15814;SDS011;8008;50.024;8.172;2023-02-22T04:45:43;14.57;;;8.27;;
15814;SDS011;8008;50.024;8.172;2023-02-22T04:48:11;17.27;;;9.67;;
15814;SDS011;8008;50.024;8.172;2023-02-22T04:50:41;16.30;;;9.87;;
15814;SDS011;8008;50.024;8.172;2023-02-22T04:53:09;16.77;;;9.87;;
15814;SDS011;8008;50.024;8.172;2023-02-22T04:55:37;17.40;;;10.23;;
15814;SDS011;8008;50.024;8.172;2023-02-22T04:58:05;16.47;;;9.77;;
15814;SDS011;8008;50.024;8.172;2023-02-22T05:00:35;19.50;;;10.67;;
15814;SDS011;8008;50.024;8.172;2023-02-22T05:03:05;20.57;;;11.63;;
15814;SDS011;8008;50.024;8.172;2023-02-22T05:05:34;18.70;;;9.93;;
15814;SDS011;8008;50.024;8.172;2023-02-22T05:08:03;12.60;;;8.27;;
15814;SDS011;8008;50.024;8.172;2023-02-22T05:10:31;20.47;;;8.17;;
15814;SDS011;8008;50.024;8.172;2023-02-22T05:12:59;21.77;;;10.40;;
15814;SDS011;8008;50.024;8.172;2023-02-22T05:15:29;17.13;;;10.43;;
15814;SDS011;8008;50.024;8.172;2023-02-22T05:17:57;20.93;;;10.77;;
15814;SDS011;8008;50.024;8.172;2023-02-22T05:20:26;17.80;;;10.20;;
15814;SDS011;8008;50.024;8.172;2023-02-22T05:22:55;15.87;;;9.73;;
15814;SDS011;8008;50.024;8.172;2023-02-22T05:25:26;16.03;;;8.53;;
15814;SDS011;8008;50.024;8.172;2023-02-22T05:27:54;14.17;;;8.63;;
15814;SDS011;8008;50.024;8.172;2023-02-22T05:30:25;12.63;;;8.43;;
15814;SDS011;8008;50.024;8.172;2023-02-22T05:32:55;12.60;;;8.73;;
15814;SDS011;8008;50.024;8.172;2023-02-22T05:35:24;15.20;;;9.63;;
15814;SDS011;8008;50.024;8.172;2023-02-22T05:37:52;15.20;;;9.13;;
15814;SDS011;8008;50.024;8.172;2023-02-22T05:40:22;20.37;;;11.47;;
15814;SDS011;8008;50.024;8.172;2023-02-22T05:42:53;52.03;;;24.67;;
15814;SDS011;8008;50.024;8.172;2023-02-22T05:45:22;56.43;;;25.77;;
15814;SDS011;8008;50.024;8.172;2023-02-22T05:47:52;36.77;;;19.67;;
15814;SDS011;8008;50.024;8.172;2023-02-22T05:50:20;24.00;;;14.87;;
15814;SDS011;8008;50.024;8.172;2023-02-22T05:52:50;19.93;;;12.90;;
15814;SDS011;8008;50.024;8.172;2023-02-22T05:55:19;15.07;;;9.67;;
15814;SDS011;8008;50.024;8.172;2023-02-22T05:57:49;17.13;;;8.93;;
15814;SDS011;8008;50.024;8.172;2023-02-22T06:00:19;14.23;;;8.93;;
15814;SDS011;8008;50.024;8.172;2023-02-22T06:02:52;13.73;;;8.43;;
15814;SDS011;8008;50.024;8.172;2023-02-22T06:05:21;14.23;;;8.30;;
15814;SDS011;8008;50.024;8.172;2023-02-22T06:07:49;17.23;;;8.63;;
15814;SDS011;8008;50.024;8.172;2023-02-22T06:10:17;39.50;;;9.27;;
15814;SDS011;8008;50.024;8.172;2023-02-22T06:12:47;18.93;;;9.40;;
15814;SDS011;8008;50.024;8.172;2023-02-22T06:15:15;28.43;;;9.23;;
15814;SDS011;8008;50.024;8.172;2023-02-22T06:17:45;33.67;;;10.43;;
15814;SDS011;8008;50.024;8.172;2023-02-22T06:20:15;36.97;;;10.37;;
15814;SDS011;8008;50.024;8.172;2023-02-22T06:22:45;22.67;;;10.53;;
15814;SDS011;8008;50.024;8.172;2023-02-22T06:25:14;19.10;;;10.57;;
15814;SDS011;8008;50.024;8.172;2023-02-22T06:27:43;23.53;;;10.33;;
15814;SDS011;8008;50.024;8.172;2023-02-22T06:30:12;24.20;;;10.20;;
15814;SDS011;8008;50.024;8.172;2023-02-22T06:32:41;19.93;;;10.50;;
15814;SDS011;8008;50.024;8.172;2023-02-22T06:35:10;24.47;;;9.63;;
15814;SDS011;8008;50.024;8.172;2023-02-22T06:37:38;30.37;;;10.67;;
15814;SDS011;8008;50.024;8.172;2023-02-22T06:40:06;29.17;;;9.93;;
15814;SDS011;8008;50.024;8.172;2023-02-22T06:42:36;27.50;;;10.60;;
15814;SDS011;8008;50.024;8.172;2023-02-22T06:45:04;27.27;;;10.43;;
15814;SDS011;8008;50.024;8.172;2023-02-22T06:47:36;26.97;;;11.03;;
15814;SDS011;8008;50.024;8.172;2023-02-22T06:50:06;31.53;;;11.50;;
15814;SDS011;8008;50.024;8.172;2023-02-22T06:52:42;22.60;;;10.97;;
15814;SDS011;8008;50.024;8.172;2023-02-22T06:55:10;25.87;;;10.93;;
15814;SDS011;8008;50.024;8.172;2023-02-22T06:57:37;27.77;;;11.60;;
15814;SDS011;8008;50.024;8.172;2023-02-22T07:00:06;27.53;;;10.93;;
15814;SDS011;8008;50.024;8.172;2023-02-22T07:02:35;31.47;;;12.30;;
15814;SDS011;8008;50.024;8.172;2023-02-22T07:05:03;28.50;;;11.03;;
15814;SDS011;8008;50.024;8.172;2023-02-22T07:07:32;20.43;;;10.80;;
15814;SDS011;8008;50.024;8.172;2023-02-22T07:10:01;26.80;;;11.50;;
15814;SDS011;8008;50.024;8.172;2023-02-22T07:12:29;23.37;;;11.23;;
15814;SDS011;8008;50.024;8.172;2023-02-22T07:14:57;37.73;;;11.07;;
15814;SDS011;8008;50.024;8.172;2023-02-22T07:17:24;26.63;;;10.97;;
15814;SDS011;8008;50.024;8.172;2023-02-22T07:19:52;29.00;;;11.53;;
15814;SDS011;8008;50.024;8.172;2023-02-22T07:22:20;32.70;;;10.63;;
15814;SDS011;8008;50.024;8.172;2023-02-22T07:24:48;38.30;;;11.23;;
15814;SDS011;8008;50.024;8.172;2023-02-22T07:27:18;33.87;;;10.57;;
15814;SDS011;8008;50.024;8.172;2023-02-22T07:29:46;38.23;;;10.97;;
15814;SDS011;8008;50.024;8.172;2023-02-22T07:32:15;39.53;;;10.23;;
15814;SDS011;8008;50.024;8.172;2023-02-22T07:34:43;44.63;;;10.77;;
15814;SDS011;8008;50.024;8.172;2023-02-22T07:37:11;38.57;;;11.20;;
15814;SDS011;8008;50.024;8.172;2023-02-22T07:39:39;24.73;;;11.30;;
15814;SDS011;8008;50.024;8.172;2023-02-22T07:42:08;26.53;;;10.37;;
15814;SDS011;8008;50.024;8.172;2023-02-22T07:44:38;27.60;;;10.27;;
15814;SDS011;8008;50.024;8.172;2023-02-22T07:47:06;31.00;;;10.47;;
15814;SDS011;8008;50.024;8.172;2023-02-22T07:49:37;24.90;;;10.43;;
15814;SDS011;8008;50.024;8.172;2023-02-22T07:52:05;24.37;;;10.63;;
15814;SDS011;8008;50.024;8.172;2023-02-22T07:54:33;23.50;;;9.90;;
15814;SDS011;8008;50.024;8.172;2023-02-22T07:57:01;28.63;;;9.97;;
15814;SDS011;8008;50.024;8.172;2023-02-22T07:59:29;43.13;;;11.07;;
15814;SDS011;8008;50.024;8.172;2023-02-22T08:02:00;22.80;;;9.90;;
15814;SDS011;8008;50.024;8.172;2023-02-22T08:04:28;19.27;;;9.37;;
15814;SDS011;8008;50.024;8.172;2023-02-22T08:06:56;26.97;;;10.30;;
15814;SDS011;8008;50.024;8.172;2023-02-22T08:09:24;17.90;;;9.57;;
15814;SDS011;8008;50.024;8.172;2023-02-22T08:11:51;20.77;;;9.83;;
15814;SDS011;8008;50.024;8.172;2023-02-22T08:14:19;15.67;;;9.30;;
15814;SDS011;8008;50.024;8.172;2023-02-22T08:16:47;16.90;;;8.73;;
15814;SDS011;8008;50.024;8.172;2023-02-22T08:19:16;15.07;;;9.50;;
15814;SDS011;8008;50.024;8.172;2023-02-22T08:21:44;12.60;;;8.60;;
15814;SDS011;8008;50.024;8.172;2023-02-22T08:24:12;16.10;;;9.13;;
15814;SDS011;8008;50.024;8.172;2023-02-22T08:26:43;15.63;;;9.60;;
15814;SDS011;8008;50.024;8.172;2023-02-22T08:29:11;17.27;;;9.70;;
15814;SDS011;8008;50.024;8.172;2023-02-22T08:31:39;14.80;;;9.93;;
15814;SDS011;8008;50.024;8.172;2023-02-22T08:34:07;14.40;;;9.37;;
15814;SDS011;8008;50.024;8.172;2023-02-22T08:36:36;15.80;;;9.10;;
15814;SDS011;8008;50.024;8.172;2023-02-22T08:39:08;16.63;;;9.57;;
15814;SDS011;8008;50.024;8.172;2023-02-22T08:41:36;14.63;;;9.07;;
15814;SDS011;8008;50.024;8.172;2023-02-22T08:44:04;15.37;;;10.00;;
15814;SDS011;8008;50.024;8.172;2023-02-22T08:46:32;18.47;;;10.33;;
15814;SDS011;8008;50.024;8.172;2023-02-22T08:49:00;18.90;;;10.27;;
15814;SDS011;8008;50.024;8.172;2023-02-22T08:51:29;17.17;;;9.80;;
15814;SDS011;8008;50.024;8.172;2023-02-22T08:54:02;18.23;;;9.90;;
15814;SDS011;8008;50.024;8.172;2023-02-22T08:56:32;15.70;;;10.30;;
15814;SDS011;8008;50.024;8.172;2023-02-22T08:58:59;19.30;;;10.10;;
15814;SDS011;8008;50.024;8.172;2023-02-22T09:01:27;14.80;;;9.27;;
15814;SDS011;8008;50.024;8.172;2023-02-22T09:03:58;15.75;;;10.23;;
15814;SDS011;8008;50.024;8.172;2023-02-22T09:06:27;18.70;;;10.27;;
15814;SDS011;8008;50.024;8.172;2023-02-22T09:08:55;17.23;;;10.10;;
15814;SDS011;8008;50.024;8.172;2023-02-22T09:11:25;19.07;;;11.37;;
15814;SDS011;8008;50.024;8.172;2023-02-22T09:13:52;17.00;;;10.67;;
15814;SDS011;8008;50.024;8.172;2023-02-22T09:16:20;19.07;;;11.37;;
15814;SDS011;8008;50.024;8.172;2023-02-22T09:18:48;20.77;;;12.67;;
15814;SDS011;8008;50.024;8.172;2023-02-22T09:21:17;28.67;;;14.80;;
15814;SDS011;8008;50.024;8.172;2023-02-22T09:23:45;30.40;;;14.40;;
15814;SDS011;8008;50.024;8.172;2023-02-22T09:26:13;26.15;;;13.20;;
15814;SDS011;8008;50.024;8.172;2023-02-22T09:28:43;28.77;;;14.30;;
15814;SDS011;8008;50.024;8.172;2023-02-22T09:31:11;28.67;;;15.27;;
15814;SDS011;8008;50.024;8.172;2023-02-22T09:33:39;35.63;;;16.67;;
15814;SDS011;8008;50.024;8.172;2023-02-22T09:36:08;30.13;;;15.90;;
15814;SDS011;8008;50.024;8.172;2023-02-22T09:38:35;32.53;;;15.10;;
15814;SDS011;8008;50.024;8.172;2023-02-22T09:41:07;30.10;;;14.93;;
15814;SDS011;8008;50.024;8.172;2023-02-22T09:43:40;35.97;;;15.83;;
15814;SDS011;8008;50.024;8.172;2023-02-22T09:46:21;42.30;;;16.50;;
15814;SDS011;8008;50.024;8.172;2023-02-22T09:48:55;40.73;;;16.70;;
15814;SDS011;8008;50.024;8.172;2023-02-22T09:51:27;41.20;;;17.03;;
15814;SDS011;8008;50.024;8.172;2023-02-22T09:54:01;52.77;;;18.63;;
15814;SDS011;8008;50.024;8.172;2023-02-22T09:56:31;49.20;;;17.97;;
15814;SDS011;8008;50.024;8.172;2023-02-22T09:59:02;47.07;;;17.97;;
15814;SDS011;8008;50.024;8.172;2023-02-22T10:01:35;43.60;;;16.63;;
15814;SDS011;8008;50.024;8.172;2023-02-22T10:04:10;38.43;;;16.97;;
15814;SDS011;8008;50.024;8.172;2023-02-22T10:06:49;44.78;;;16.45;;
15814;SDS011;8008;50.024;8.172;2023-02-22T10:09:31;38.93;;;15.77;;
15814;SDS011;8008;50.024;8.172;2023-02-22T10:12:05;38.60;;;16.17;;
15814;SDS011;8008;50.024;8.172;2023-02-22T10:17:35;36.65;;;15.90;;
15814;SDS011;8008;50.024;8.172;2023-02-22T10:20:11;42.13;;;16.63;;
15814;SDS011;8008;50.024;8.172;2023-02-22T10:22:53;37.40;;;16.57;;
15814;SDS011;8008;50.024;8.172;2023-02-22T10:25:29;41.80;;;16.42;;
15814;SDS011;8008;50.024;8.172;2023-02-22T10:28:00;41.05;;;17.48;;
15814;SDS011;8008;50.024;8.172;2023-02-22T10:30:38;41.83;;;17.45;;
15814;SDS011;8008;50.024;8.172;2023-02-22T10:33:09;35.97;;;16.52;;
15814;SDS011;8008;50.024;8.172;2023-02-22T10:35:49;39.80;;;16.30;;
15814;SDS011;8008;50.024;8.172;2023-02-22T10:38:18;37.08;;;17.33;;
15814;SDS011;8008;50.024;8.172;2023-02-22T10:40:49;38.85;;;16.98;;
15814;SDS011;8008;50.024;8.172;2023-02-22T10:43:21;34.10;;;16.85;;
15814;SDS011;8008;50.024;8.172;2023-02-22T10:45:53;37.00;;;17.42;;
15814;SDS011;8008;50.024;8.172;2023-02-22T10:48:25;42.17;;;17.98;;
15814;SDS011;8008;50.024;8.172;2023-02-22T10:50:57;34.10;;;17.33;;
15814;SDS011;8008;50.024;8.172;2023-02-22T10:53:27;32.72;;;17.33;;
15814;SDS011;8008;50.024;8.172;2023-02-22T10:56:06;32.47;;;16.92;;
15814;SDS011;8008;50.024;8.172;2023-02-22T10:58:38;35.33;;;18.55;;
15814;SDS011;8008;50.024;8.172;2023-02-22T11:01:22;39.00;;;18.85;;
15814;SDS011;8008;50.024;8.172;2023-02-22T11:04:05;41.33;;;19.15;;
15814;SDS011;8008;50.024;8.172;2023-02-22T11:06:38;40.47;;;19.05;;
15814;SDS011;8008;50.024;8.172;2023-02-22T11:09:10;35.40;;;18.00;;
15814;SDS011;8008;50.024;8.172;2023-02-22T11:11:40;35.08;;;18.67;;
15814;SDS011;8008;50.024;8.172;2023-02-22T11:14:10;38.80;;;19.17;;
15814;SDS011;8008;50.024;8.172;2023-02-22T11:16:43;33.17;;;17.98;;
15814;SDS011;8008;50.024;8.172;2023-02-22T11:19:17;33.42;;;17.80;;
15814;SDS011;8008;50.024;8.172;2023-02-22T11:21:50;36.50;;;18.20;;
15814;SDS011;8008;50.024;8.172;2023-02-22T11:24:20;33.42;;;18.52;;
15814;SDS011;8008;50.024;8.172;2023-02-22T11:26:58;33.58;;;18.45;;
15814;SDS011;8008;50.024;8.172;2023-02-22T11:29:28;34.47;;;18.83;;
15814;SDS011;8008;50.024;8.172;2023-02-22T11:32:01;35.65;;;19.60;;
15814;SDS011;8008;50.024;8.172;2023-02-22T11:34:33;36.92;;;19.95;;
15814;SDS011;8008;50.024;8.172;2023-02-22T11:40:04;37.90;;;20.80;;
15814;SDS011;8008;50.024;8.172;2023-02-22T11:42:37;35.53;;;20.42;;
15814;SDS011;8008;50.024;8.172;2023-02-22T11:45:09;35.05;;;20.50;;
15814;SDS011;8008;50.024;8.172;2023-02-22T11:47:48;36.92;;;20.92;;
15814;SDS011;8008;50.024;8.172;2023-02-22T11:50:26;36.10;;;20.60;;
15814;SDS011;8008;50.024;8.172;2023-02-22T11:53:00;33.63;;;18.77;;
15814;SDS011;8008;50.024;8.172;2023-02-22T11:55:49;35.20;;;19.27;;
15814;SDS011;8008;50.024;8.172;2023-02-22T11:58:28;31.92;;;18.38;;
15814;SDS011;8008;50.024;8.172;2023-02-22T12:01:04;32.10;;;18.80;;
15814;SDS011;8008;50.024;8.172;2023-02-22T12:03:50;34.13;;;19.10;;
15814;SDS011;8008;50.024;8.172;2023-02-22T12:06:44;37.85;;;19.83;;
15814;SDS011;8008;50.024;8.172;2023-02-22T12:09:19;33.45;;;19.35;;
15814;SDS011;8008;50.024;8.172;2023-02-22T12:11:54;34.70;;;19.75;;
15814;SDS011;8008;50.024;8.172;2023-02-22T12:14:36;37.92;;;19.60;;
15814;SDS011;8008;50.024;8.172;2023-02-22T12:17:17;35.47;;;19.45;;
15814;SDS011;8008;50.024;8.172;2023-02-22T12:19:53;36.15;;;19.50;;
15814;SDS011;8008;50.024;8.172;2023-02-22T12:22:28;37.30;;;20.13;;
15814;SDS011;8008;50.024;8.172;2023-02-22T12:25:01;36.50;;;19.50;;
15814;SDS011;8008;50.024;8.172;2023-02-22T12:27:35;31.65;;;17.63;;
15814;SDS011;8008;50.024;8.172;2023-02-22T12:30:10;33.58;;;18.30;;
15814;SDS011;8008;50.024;8.172;2023-02-22T12:32:44;30.65;;;17.83;;
15814;SDS011;8008;50.024;8.172;2023-02-22T12:35:19;32.20;;;18.17;;
15814;SDS011;8008;50.024;8.172;2023-02-22T12:37:51;30.30;;;17.90;;
15814;SDS011;8008;50.024;8.172;2023-02-22T12:40:29;34.47;;;17.73;;
15814;SDS011;8008;50.024;8.172;2023-02-22T12:43:03;34.03;;;18.08;;
15814;SDS011;8008;50.024;8.172;2023-02-22T12:45:39;30.05;;;17.73;;
15814;SDS011;8008;50.024;8.172;2023-02-22T12:48:22;30.35;;;17.48;;
15814;SDS011;8008;50.024;8.172;2023-02-22T12:50:59;30.48;;;17.80;;
15814;SDS011;8008;50.024;8.172;2023-02-22T12:53:48;30.50;;;18.45;;
15814;SDS011;8008;50.024;8.172;2023-02-22T12:56:23;32.47;;;18.15;;
15814;SDS011;8008;50.024;8.172;2023-02-22T12:58:56;28.58;;;17.58;;
15814;SDS011;8008;50.024;8.172;2023-02-22T13:01:31;33.03;;;17.98;;
15814;SDS011;8008;50.024;8.172;2023-02-22T13:04:03;32.00;;;17.75;;
15814;SDS011;8008;50.024;8.172;2023-02-22T13:06:49;26.60;;;16.85;;
15814;SDS011;8008;50.024;8.172;2023-02-22T13:09:45;28.35;;;17.75;;
15814;SDS011;8008;50.024;8.172;2023-02-22T13:12:34;30.35;;;16.92;;
15814;SDS011;8008;50.024;8.172;2023-02-22T13:15:14;31.48;;;18.13;;
15814;SDS011;8008;50.024;8.172;2023-02-22T13:17:50;30.02;;;18.92;;
15814;SDS011;8008;50.024;8.172;2023-02-22T13:20:27;32.08;;;18.83;;
15814;SDS011;8008;50.024;8.172;2023-02-22T13:23:02;30.15;;;17.83;;
15814;SDS011;8008;50.024;8.172;2023-02-22T13:25:36;29.88;;;17.50;;
15814;SDS011;8008;50.024;8.172;2023-02-22T13:28:19;30.20;;;17.50;;
15814;SDS011;8008;50.024;8.172;2023-02-22T13:31:00;27.65;;;17.17;;
15814;SDS011;8008;50.024;8.172;2023-02-22T13:33:43;30.65;;;17.40;;
15814;SDS011;8008;50.024;8.172;2023-02-22T13:36:23;31.17;;;17.30;;
15814;SDS011;8008;50.024;8.172;2023-02-22T13:39:03;32.78;;;18.30;;
15814;SDS011;8008;50.024;8.172;2023-02-22T13:48:17;32.83;;;17.67;;
15814;SDS011;8008;50.024;8.172;2023-02-22T13:51:05;31.23;;;17.77;;
15814;SDS011;8008;50.024;8.172;2023-02-22T13:53:41;27.63;;;16.67;;
15814;SDS011;8008;50.024;8.172;2023-02-22T13:56:16;26.13;;;15.63;;
15814;SDS011;8008;50.024;8.172;2023-02-22T13:58:46;24.25;;;15.65;;
15814;SDS011;8008;50.024;8.172;2023-02-22T14:04:20;26.08;;;15.88;;
15814;SDS011;8008;50.024;8.172;2023-02-22T14:13:15;30.55;;;17.05;;
15814;SDS011;8008;50.024;8.172;2023-02-22T14:18:46;28.50;;;16.67;;
15814;SDS011;8008;50.024;8.172;2023-02-22T14:21:17;26.70;;;17.30;;
15814;SDS011;8008;50.024;8.172;2023-02-22T14:23:46;29.08;;;17.42;;
15814;SDS011;8008;50.024;8.172;2023-02-22T14:26:16;25.95;;;16.52;;
15814;SDS011;8008;50.024;8.172;2023-02-22T14:28:52;29.70;;;18.13;;
15814;SDS011;8008;50.024;8.172;2023-02-22T14:31:23;34.13;;;18.45;;
15814;SDS011;8008;50.024;8.172;2023-02-22T14:34:06;31.73;;;17.88;;
15814;SDS011;8008;50.024;8.172;2023-02-22T14:36:40;31.45;;;18.38;;
15814;SDS011;8008;50.024;8.172;2023-02-22T14:39:18;35.28;;;17.70;;
15814;SDS011;8008;50.024;8.172;2023-02-22T14:41:53;26.98;;;16.40;;
15814;SDS011;8008;50.024;8.172;2023-02-22T14:44:29;27.67;;;15.95;;
15814;SDS011;8008;50.024;8.172;2023-02-22T14:47:02;29.02;;;16.90;;
15814;SDS011;8008;50.024;8.172;2023-02-22T14:49:33;29.15;;;18.38;;
15814;SDS011;8008;50.024;8.172;2023-02-22T14:52:05;30.55;;;18.27;;
15814;SDS011;8008;50.024;8.172;2023-02-22T14:54:46;28.52;;;16.63;;
15814;SDS011;8008;50.024;8.172;2023-02-22T14:57:24;28.13;;;17.90;;
15814;SDS011;8008;50.024;8.172;2023-02-22T15:00:03;26.48;;;17.08;;
15814;SDS011;8008;50.024;8.172;2023-02-22T15:02:45;25.00;;;16.75;;
15814;SDS011;8008;50.024;8.172;2023-02-22T15:05:14;25.55;;;16.13;;
15814;SDS011;8008;50.024;8.172;2023-02-22T15:07:51;26.88;;;17.30;;
15814;SDS011;8008;50.024;8.172;2023-02-22T15:10:23;26.55;;;17.73;;
15814;SDS011;8008;50.024;8.172;2023-02-22T15:12:54;28.20;;;18.17;;
15814;SDS011;8008;50.024;8.172;2023-02-22T15:15:36;27.10;;;18.35;;
15814;SDS011;8008;50.024;8.172;2023-02-22T15:18:13;30.50;;;18.55;;
15814;SDS011;8008;50.024;8.172;2023-02-22T15:20:47;28.35;;;18.40;;
15814;SDS011;8008;50.024;8.172;2023-02-22T15:23:22;26.92;;;17.42;;
15814;SDS011;8008;50.024;8.172;2023-02-22T15:25:55;30.85;;;18.80;;
15814;SDS011;8008;50.024;8.172;2023-02-22T15:28:25;31.20;;;18.45;;
15814;SDS011;8008;50.024;8.172;2023-02-22T15:31:23;28.08;;;17.92;;
15814;SDS011;8008;50.024;8.172;2023-02-22T15:33:55;31.55;;;18.30;;
15814;SDS011;8008;50.024;8.172;2023-02-22T15:36:24;28.83;;;17.90;;
15814;SDS011;8008;50.024;8.172;2023-02-22T15:38:56;26.80;;;17.13;;
15814;SDS011;8008;50.024;8.172;2023-02-22T15:41:27;27.52;;;16.95;;
15814;SDS011;8008;50.024;8.172;2023-02-22T15:43:57;30.73;;;17.13;;
15814;SDS011;8008;50.024;8.172;2023-02-22T15:46:40;28.33;;;17.48;;
15814;SDS011;8008;50.024;8.172;2023-02-22T15:52:03;29.63;;;16.88;;
15814;SDS011;8008;50.024;8.172;2023-02-22T15:54:40;28.13;;;16.55;;
15814;SDS011;8008;50.024;8.172;2023-02-22T15:57:14;27.13;;;17.13;;
15814;SDS011;8008;50.024;8.172;2023-02-22T15:59:45;28.52;;;17.02;;
15814;SDS011;8008;50.024;8.172;2023-02-22T16:05:08;31.02;;;16.55;;
15814;SDS011;8008;50.024;8.172;2023-02-22T16:07:38;26.15;;;16.20;;
15814;SDS011;8008;50.024;8.172;2023-02-22T16:10:19;26.00;;;17.15;;
15814;SDS011;8008;50.024;8.172;2023-02-22T16:13:02;26.45;;;16.52;;
15814;SDS011;8008;50.024;8.172;2023-02-22T16:15:32;27.75;;;16.88;;
15814;SDS011;8008;50.024;8.172;2023-02-22T16:18:17;26.05;;;16.65;;
15814;SDS011;8008;50.024;8.172;2023-02-22T16:21:03;29.58;;;17.27;;
15814;SDS011;8008;50.024;8.172;2023-02-22T16:23:41;28.70;;;15.70;;
15814;SDS011;8008;50.024;8.172;2023-02-22T16:26:18;27.42;;;16.55;;
15814;SDS011;8008;50.024;8.172;2023-02-22T16:28:52;26.48;;;16.38;;
15814;SDS011;8008;50.024;8.172;2023-02-22T16:31:21;30.05;;;16.63;;
15814;SDS011;8008;50.024;8.172;2023-02-22T16:33:53;27.63;;;17.20;;
15814;SDS011;8008;50.024;8.172;2023-02-22T16:36:22;29.85;;;16.30;;
15814;SDS011;8008;50.024;8.172;2023-02-22T16:39:04;27.17;;;16.63;;
15814;SDS011;8008;50.024;8.172;2023-02-22T16:41:33;32.08;;;18.85;;
15814;SDS011;8008;50.024;8.172;2023-02-22T16:44:01;31.45;;;17.58;;
15814;SDS011;8008;50.024;8.172;2023-02-22T16:46:32;33.63;;;20.23;;
15814;SDS011;8008;50.024;8.172;2023-02-22T16:49:03;38.80;;;19.88;;
15814;SDS011;8008;50.024;8.172;2023-02-22T16:51:31;30.80;;;19.42;;
15814;SDS011;8008;50.024;8.172;2023-02-22T16:54:05;33.05;;;19.55;;
15814;SDS011;8008;50.024;8.172;2023-02-22T16:56:37;31.77;;;19.35;;
15814;SDS011;8008;50.024;8.172;2023-02-22T16:59:07;30.00;;;18.25;;
15814;SDS011;8008;50.024;8.172;2023-02-22T17:01:39;30.73;;;18.48;;
15814;SDS011;8008;50.024;8.172;2023-02-22T17:04:11;32.63;;;19.98;;
15814;SDS011;8008;50.024;8.172;2023-02-22T17:06:40;29.80;;;18.85;;
15814;SDS011;8008;50.024;8.172;2023-02-22T17:09:08;32.05;;;18.77;;
15814;SDS011;8008;50.024;8.172;2023-02-22T17:11:36;33.45;;;19.30;;
15814;SDS011;8008;50.024;8.172;2023-02-22T17:14:05;31.98;;;19.88;;
15814;SDS011;8008;50.024;8.172;2023-02-22T17:16:33;38.75;;;20.25;;
15814;SDS011;8008;50.024;8.172;2023-02-22T17:19:01;29.65;;;17.88;;
15814;SDS011;8008;50.024;8.172;2023-02-22T17:21:31;29.85;;;18.40;;
15814;SDS011;8008;50.024;8.172;2023-02-22T17:23:59;34.33;;;19.35;;
15814;SDS011;8008;50.024;8.172;2023-02-22T17:26:27;33.70;;;19.40;;
15814;SDS011;8008;50.024;8.172;2023-02-22T17:28:55;31.38;;;18.33;;
15814;SDS011;8008;50.024;8.172;2023-02-22T17:31:23;30.83;;;18.63;;
15814;SDS011;8008;50.024;8.172;2023-02-22T17:33:57;39.88;;;21.45;;
15814;SDS011;8008;50.024;8.172;2023-02-22T17:36:27;33.28;;;19.48;;
15814;SDS011;8008;50.024;8.172;2023-02-22T17:38:56;35.83;;;20.77;;
15814;SDS011;8008;50.024;8.172;2023-02-22T17:41:24;42.33;;;24.40;;
15814;SDS011;8008;50.024;8.172;2023-02-22T17:43:52;40.40;;;25.48;;
15814;SDS011;8008;50.024;8.172;2023-02-22T17:46:23;38.65;;;23.35;;
15814;SDS011;8008;50.024;8.172;2023-02-22T17:48:51;41.90;;;23.00;;
15814;SDS011;8008;50.024;8.172;2023-02-22T17:51:20;41.60;;;24.05;;
15814;SDS011;8008;50.024;8.172;2023-02-22T17:53:49;45.05;;;25.50;;
15814;SDS011;8008;50.024;8.172;2023-02-22T17:56:19;40.95;;;25.25;;
15814;SDS011;8008;50.024;8.172;2023-02-22T17:58:47;38.47;;;23.15;;
15814;SDS011;8008;50.024;8.172;2023-02-22T18:01:19;38.22;;;22.30;;
15814;SDS011;8008;50.024;8.172;2023-02-22T18:03:49;37.28;;;21.98;;
15814;SDS011;8008;50.024;8.172;2023-02-22T18:06:18;41.08;;;24.35;;
15814;SDS011;8008;50.024;8.172;2023-02-22T18:08:50;48.08;;;26.30;;
15814;SDS011;8008;50.024;8.172;2023-02-22T18:11:23;38.88;;;23.48;;
15814;SDS011;8008;50.024;8.172;2023-02-22T18:13:52;39.97;;;22.38;;
15814;SDS011;8008;50.024;8.172;2023-02-22T18:16:20;48.33;;;25.35;;
15814;SDS011;8008;50.024;8.172;2023-02-22T18:18:51;45.20;;;25.42;;
15814;SDS011;8008;50.024;8.172;2023-02-22T18:21:19;45.13;;;24.55;;
15814;SDS011;8008;50.024;8.172;2023-02-22T18:23:47;46.30;;;24.58;;
15814;SDS011;8008;50.024;8.172;2023-02-22T18:26:16;43.70;;;24.13;;
15814;SDS011;8008;50.024;8.172;2023-02-22T18:28:47;42.70;;;22.95;;
15814;SDS011;8008;50.024;8.172;2023-02-22T18:31:15;42.15;;;22.80;;
15814;SDS011;8008;50.024;8.172;2023-02-22T18:33:45;43.30;;;23.52;;
15814;SDS011;8008;50.024;8.172;2023-02-22T18:36:15;41.70;;;22.88;;
15814;SDS011;8008;50.024;8.172;2023-02-22T18:38:48;35.03;;;20.83;;
15814;SDS011;8008;50.024;8.172;2023-02-22T18:41:18;40.13;;;22.80;;
15814;SDS011;8008;50.024;8.172;2023-02-22T18:43:51;46.30;;;22.92;;
15814;SDS011;8008;50.024;8.172;2023-02-22T18:46:23;47.92;;;24.15;;
15814;SDS011;8008;50.024;8.172;2023-02-22T18:48:51;47.47;;;24.42;;
15814;SDS011;8008;50.024;8.172;2023-02-22T18:51:20;49.90;;;26.40;;
15814;SDS011;8008;50.024;8.172;2023-02-22T18:53:49;45.40;;;24.13;;
15814;SDS011;8008;50.024;8.172;2023-02-22T18:56:21;42.58;;;22.63;;
15814;SDS011;8008;50.024;8.172;2023-02-22T18:58:56;40.65;;;22.67;;
15814;SDS011;8008;50.024;8.172;2023-02-22T19:01:26;44.95;;;24.10;;
15814;SDS011;8008;50.024;8.172;2023-02-22T19:03:54;51.28;;;29.67;;
15814;SDS011;8008;50.024;8.172;2023-02-22T19:06:22;45.38;;;25.20;;
15814;SDS011;8008;50.024;8.172;2023-02-22T19:08:50;39.35;;;23.30;;
15814;SDS011;8008;50.024;8.172;2023-02-22T19:11:19;40.58;;;23.23;;
15814;SDS011;8008;50.024;8.172;2023-02-22T19:13:49;37.97;;;22.13;;
15814;SDS011;8008;50.024;8.172;2023-02-22T19:16:21;49.75;;;26.17;;
15814;SDS011;8008;50.024;8.172;2023-02-22T19:18:50;46.20;;;24.50;;
15814;SDS011;8008;50.024;8.172;2023-02-22T19:21:23;42.25;;;21.95;;
15814;SDS011;8008;50.024;8.172;2023-02-22T19:23:58;38.20;;;20.67;;
15814;SDS011;8008;50.024;8.172;2023-02-22T19:26:26;36.47;;;21.00;;
15814;SDS011;8008;50.024;8.172;2023-02-22T19:28:56;35.42;;;20.65;;
15814;SDS011;8008;50.024;8.172;2023-02-22T19:31:26;36.65;;;21.55;;
15814;SDS011;8008;50.024;8.172;2023-02-22T19:33:59;39.85;;;20.92;;
15814;SDS011;8008;50.024;8.172;2023-02-22T19:36:29;30.35;;;18.35;;
15814;SDS011;8008;50.024;8.172;2023-02-22T19:38:57;31.70;;;19.05;;